Time;durP1;ratioP1;P1;durP2;ratioP2;P2;SDS_P1;SDS_P2;PMS_P1;PMS_P2;Temp;Humidity;BMP_temperature;BMP_pressure;BME280_temperature;BME280_humidity;BME280_pressure;Samples;Min_cycle;Max_cycle;Signal;HPM_P1;HPM_P2
2022/03/12 00:00:07;;;;;;;14.73;6.55;;;;;;;0.75;39.11;96485.06;5100301;28;20058;-77
2022/03/12 00:02:34;;;;;;;15.93;7.32;;;;;;;0.74;39.06;96483.44;5088808;28;20515;-78
2022/03/12 00:05:06;;;;;;;11.95;6.78;;;;;;;0.78;38.94;96486.41;5089010;28;20058;-78
2022/03/12 00:07:32;;;;;;;12.63;6.85;;;;;;;0.78;39.15;96481.88;5088318;28;20646;-77
2022/03/12 00:10:00;;;;;;;12.80;6.65;;;;;;;0.80;39.21;96483.50;5088879;28;20109;-77
2022/03/12 00:12:27;;;;;;;11.85;6.55;;;;;;;0.78;39.18;96481.03;5087965;28;20039;-78
2022/03/12 00:14:54;;;;;;;12.52;6.70;;;;;;;0.78;39.79;96489.91;5089370;28;20649;-78
2022/03/12 00:17:25;;;;;;;10.38;6.03;;;;;;;0.77;38.92;96490.97;5107983;28;20859;-75
2022/03/12 00:19:51;;;;;;;13.23;6.47;;;;;;;0.75;39.40;96497.66;5109281;28;20222;-78
2022/03/12 00:22:19;;;;;;;10.52;5.90;;;;;;;0.65;38.94;96498.34;5107863;28;20054;-77
2022/03/12 00:24:48;;;;;;;10.20;5.80;;;;;;;0.62;39.05;96493.47;5109044;28;20628;-77
2022/03/12 00:27:16;;;;;;;12.50;6.55;;;;;;;0.59;39.42;96499.34;5107953;28;20142;-77
2022/03/12 00:29:43;;;;;;;13.95;6.82;;;;;;;0.55;40.54;96503.59;5102976;28;20413;-77
2022/03/12 00:32:13;;;;;;;13.80;6.90;;;;;;;0.53;40.12;96508.38;5087842;28;20127;-77
2022/03/12 00:34:40;;;;;;;12.18;6.32;;;;;;;0.58;39.35;96513.81;5087493;28;20079;-79
2022/03/12 00:37:07;;;;;;;11.73;6.22;;;;;;;0.58;39.43;96508.44;5087871;28;20059;-79
2022/03/12 00:39:34;;;;;;;10.65;6.10;;;;;;;0.61;39.34;96521.34;5087606;28;20044;-77
2022/03/12 00:42:00;;;;;;;12.57;7.05;;;;;;;0.64;39.54;96518.16;5088392;28;20052;-77
2022/03/12 00:44:30;;;;;;;13.50;6.88;;;;;;;0.61;40.18;96517.84;5087791;28;20055;-78
2022/03/12 00:46:57;;;;;;;11.85;6.40;;;;;;;0.55;39.33;96519.66;5105528;28;20040;-78
2022/03/12 00:49:23;;;;;;;14.82;6.80;;;;;;;0.57;39.51;96520.22;5107837;28;20050;-78
2022/03/12 00:51:50;;;;;;;12.00;6.55;;;;;;;0.56;39.57;96515.91;5107863;28;20047;-77
2022/03/12 00:54:16;;;;;;;11.82;6.07;;;;;;;0.56;39.51;96515.91;5108000;28;20141;-79
2022/03/12 00:56:43;;;;;;;12.82;6.47;;;;;;;0.56;39.60;96523.94;5107412;28;20062;-78
2022/03/12 00:59:09;;;;;;;12.63;6.85;;;;;;;0.55;39.58;96525.00;5107065;28;20051;-78
2022/03/12 01:01:37;;;;;;;11.98;6.20;;;;;;;0.52;40.09;96525.50;5087592;28;20051;-77
2022/03/12 01:04:05;;;;;;;13.23;6.78;;;;;;;0.49;39.78;96526.81;5087005;28;20055;-77
2022/03/12 01:06:33;;;;;;;13.85;6.65;;;;;;;0.50;39.67;96519.59;5086649;28;20052;-77
2022/03/12 01:08:59;;;;;;;15.07;7.45;;;;;;;0.49;39.60;96526.81;5087765;28;20101;-77
2022/03/12 01:11:26;;;;;;;13.35;6.55;;;;;;;0.46;39.85;96519.28;5086879;28;20059;-77
2022/03/12 01:13:52;;;;;;;15.85;6.65;;;;;;;0.46;40.16;96518.47;5086774;28;20712;-78
2022/03/12 01:16:19;;;;;;;9.85;5.05;;;;;;;0.45;39.97;96511.50;5099351;28;20049;-78
2022/03/12 01:18:47;;;;;;;12.88;6.80;;;;;;;0.40;39.94;96512.25;5107170;28;20055;-77
2022/03/12 01:21:18;;;;;;;12.43;6.32;;;;;;;0.40;39.72;96516.78;5108001;28;20048;-75
2022/03/12 01:23:45;;;;;;;16.52;7.15;;;;;;;0.40;39.62;96514.91;5106830;28;20040;-78
2022/03/12 01:26:13;;;;;;;13.63;6.60;;;;;;;0.40;39.95;96522.16;5105879;28;20055;-77
2022/03/12 01:28:39;;;;;;;13.55;6.07;;;;;;;0.36;39.86;96518.34;5106836;28;20051;-78
2022/03/12 01:31:06;;;;;;;12.48;6.38;;;;;;;0.34;39.98;96523.97;5090036;28;20051;-78
2022/03/12 01:33:33;;;;;;;14.25;6.32;;;;;;;0.23;39.83;96512.31;5087262;28;20048;-76
2022/03/12 01:36:01;;;;;;;13.15;6.90;;;;;;;0.28;40.15;96514.25;5086908;28;20044;-75
2022/03/12 01:38:31;;;;;;;11.13;6.00;;;;;;;0.31;40.40;96524.44;5087046;28;20040;-78
2022/03/12 01:41:02;;;;;;;16.60;6.15;;;;;;;0.29;40.29;96515.03;5086533;28;20047;-75
2022/03/12 01:43:32;;;;;;;11.98;6.57;;;;;;;0.27;40.73;96511.81;5087231;28;20122;-77
2022/03/12 01:46:01;;;;;;;11.48;6.28;;;;;;;0.23;40.89;96506.94;5095929;28;20100;-75
2022/03/12 01:48:28;;;;;;;15.25;6.45;;;;;;;0.23;40.58;96509.63;5107484;28;20048;-76
2022/03/12 01:50:55;;;;;;;15.00;6.88;;;;;;;0.22;40.20;96518.72;5106635;28;20123;-76
2022/03/12 01:53:27;;;;;;;11.93;6.47;;;;;;;0.20;40.28;96518.16;5107090;28;20055;-75
2022/03/12 01:55:55;;;;;;;13.35;6.57;;;;;;;0.20;40.15;96518.16;5107525;28;20055;-77
2022/03/12 01:58:22;;;;;;;12.48;6.00;;;;;;;0.18;40.32;96522.16;5106898;28;20051;-76
2022/03/12 02:00:50;;;;;;;12.90;5.75;;;;;;;0.16;40.01;96517.03;5093459;28;20059;-75
2022/03/12 02:03:19;;;;;;;13.38;6.82;;;;;;;0.14;40.63;96516.47;5085727;28;20054;-75
2022/03/12 02:05:46;;;;;;;11.88;6.07;;;;;;;0.10;40.32;96523.38;5086992;28;20051;-75
2022/03/12 02:08:14;;;;;;;10.70;5.90;;;;;;;0.06;40.02;96516.91;5085538;28;20785;-76
2022/03/12 02:10:43;;;;;;;11.82;5.68;;;;;;;0.06;40.64;96511.56;5087282;28;20491;-75
2022/03/12 02:13:09;;;;;;;11.77;5.85;;;;;;;0.03;40.43;96500.50;5087596;28;20392;-75
2022/03/12 02:15:36;;;;;;;15.00;7.25;;;;;;;0.02;40.53;96504.25;5094564;28;20051;-75
2022/03/12 02:18:03;;;;;;;11.05;6.13;;;;;;;0.04;40.63;96502.13;5106356;28;20067;-76
2022/03/12 02:20:30;;;;;;;13.85;6.60;;;;;;;0.02;40.48;96498.91;5107043;28;20040;-75
2022/03/12 02:22:59;;;;;;;10.93;5.88;;;;;;;0.00;40.53;96496.47;5107263;28;20044;-75
2022/03/12 02:25:29;;;;;;;15.75;7.05;;;;;;;-0.01;40.27;96503.69;5106109;28;20109;-76
2022/03/12 02:27:57;;;;;;;12.20;6.80;;;;;;;0.02;40.36;96499.72;5107334;28;20055;-76
2022/03/12 02:30:28;;;;;;;14.02;6.78;;;;;;;-0.01;40.08;96505.53;5094458;28;20051;-75
2022/03/12 02:33:00;;;;;;;14.35;6.82;;;;;;;-0.02;39.93;96503.94;5087022;28;20490;-75
2022/03/12 02:35:26;;;;;;;10.98;5.75;;;;;;;-0.06;40.26;96505.47;5085684;28;20059;-76
2022/03/12 02:37:53;;;;;;;12.32;6.60;;;;;;;-0.05;41.03;96507.13;5086252;28;20126;-76
2022/03/12 02:40:20;;;;;;;10.95;5.90;;;;;;;-0.04;40.17;96500.69;5085817;28;20048;-76
2022/03/12 02:42:50;;;;;;;12.63;6.47;;;;;;;-0.03;40.42;96502.31;5086318;28;20427;-76
2022/03/12 02:45:19;;;;;;;13.55;6.20;;;;;;;-0.07;40.35;96499.31;5090177;28;20054;-77
2022/03/12 02:47:47;;;;;;;14.63;7.13;;;;;;;-0.08;40.77;96510.28;5105502;28;20051;-75
2022/03/12 02:50:14;;;;;;;12.77;6.10;;;;;;;-0.07;40.82;96501.19;5106308;28;20445;-76
2022/03/12 02:52:44;;;;;;;10.43;5.53;;;;;;;-0.07;41.10;96511.88;5105601;28;20071;-78
2022/03/12 02:55:13;;;;;;;13.27;6.15;;;;;;;-0.08;41.16;96503.06;5106069;28;20050;-76
2022/03/12 02:57:42;;;;;;;12.48;6.07;;;;;;;-0.08;40.95;96494.22;5105677;28;20059;-75
2022/03/12 03:00:12;;;;;;;13.02;6.40;;;;;;;-0.09;41.08;96497.94;5097026;28;20133;-76
2022/03/12 03:02:41;;;;;;;11.77;6.47;;;;;;;-0.06;41.00;96498.25;5085837;28;20109;-75
2022/03/12 03:05:30;;;;;;;14.68;7.00;;;;;;;-0.08;41.19;96510.28;5084933;28;20088;-76
2022/03/12 03:07:57;;;;;;;15.40;7.00;;;;;;;-0.15;41.32;96509.66;5086366;28;20506;-77
2022/03/12 03:10:31;;;;;;;11.23;5.78;;;;;;;-0.11;41.19;96516.09;5084627;28;20523;-78
2022/03/12 03:12:58;;;;;;;14.93;6.82;;;;;;;-0.12;41.10;96520.66;5086101;28;20074;-77
2022/03/12 03:15:29;;;;;;;14.20;7.13;;;;;;;-0.12;41.47;96526.00;5089674;28;20074;-77
2022/03/12 03:17:57;;;;;;;13.18;6.20;;;;;;;-0.08;41.63;96520.97;5106198;28;20043;-77
2022/03/12 03:20:24;;;;;;;12.50;6.45;;;;;;;-0.10;41.10;96523.91;5105230;28;20082;-78
2022/03/12 03:22:50;;;;;;;13.48;6.75;;;;;;;-0.12;40.81;96526.00;5105163;28;20055;-77
2022/03/12 03:25:17;;;;;;;10.82;5.95;;;;;;;-0.11;41.25;96529.50;5105881;28;20402;-78
2022/03/12 03:27:43;;;;;;;11.45;5.93;;;;;;;-0.11;40.92;96526.81;5107108;28;20051;-78
2022/03/12 03:30:10;;;;;;;13.93;6.25;;;;;;;-0.12;40.94;96531.34;5100945;28;20059;-77
2022/03/12 03:32:38;;;;;;;13.05;6.38;;;;;;;-0.11;41.61;96537.53;5089139;28;20051;-77
2022/03/12 03:35:06;;;;;;;12.30;6.60;;;;;;;-0.11;41.60;96532.16;5090128;28;20055;-78
2022/03/12 03:37:32;;;;;;;13.90;6.60;;;;;;;-0.09;41.12;96546.13;5089025;28;20044;-77
2022/03/12 03:39:58;;;;;;;12.88;7.00;;;;;;;-0.08;41.35;96539.72;5090083;28;20044;-78
2022/03/12 03:42:25;;;;;;;14.27;7.18;;;;;;;-0.06;41.32;96551.78;5091209;28;20063;-77
2022/03/12 03:44:57;;;;;;;15.70;7.43;;;;;;;-0.04;41.28;96544.34;5107913;27;20051;-78
2022/03/12 03:47:24;;;;;;;9.95;5.75;;;;;;;0.00;41.42;96550.03;5110331;28;20494;-78
2022/03/12 03:49:51;;;;;;;13.45;6.63;;;;;;;-0.01;41.36;96543.03;5110880;27;20061;-78
2022/03/12 03:52:18;;;;;;;14.45;6.30;;;;;;;0.00;41.04;96544.66;5130443;27;20150;-78
2022/03/12 03:54:45;;;;;;;11.20;5.97;;;;;;;0.00;41.36;96550.03;5129218;27;20047;-78
2022/03/12 03:57:15;;;;;;;12.05;5.90;;;;;;;0.02;41.42;96547.91;5130123;27;20060;-77
2022/03/12 03:59:41;;;;;;;13.30;7.50;;;;;;;0.00;41.78;96550.03;5124238;27;20120;-78
2022/03/12 04:02:08;;;;;;;18.55;10.15;;;;;;;-0.05;41.65;96545.41;5108965;28;20043;-77
2022/03/12 04:04:38;;;;;;;13.65;7.95;;;;;;;-0.05;41.99;96544.59;5108965;28;20434;-78
2022/03/12 04:07:06;;;;;;;14.48;7.50;;;;;;;-0.10;42.24;96550.69;5108467;28;20044;-78
2022/03/12 04:09:33;;;;;;;12.90;6.95;;;;;;;-0.10;42.08;96555.22;5109213;28;20411;-77
2022/03/12 04:11:59;;;;;;;12.18;6.20;;;;;;;-0.09;42.11;96551.50;5108507;28;20047;-78
2022/03/12 04:14:27;;;;;;;13.00;6.53;;;;;;;-0.10;42.26;96549.88;5119704;27;20043;-78
2022/03/12 04:16:53;;;;;;;12.80;6.63;;;;;;;-0.10;41.75;96555.22;5128684;27;20409;-78
2022/03/12 04:19:20;;;;;;;12.95;6.45;;;;;;;-0.12;42.03;96551.97;5129742;27;20047;-78
2022/03/12 04:21:46;;;;;;;12.63;6.35;;;;;;;-0.13;42.08;96553.03;5129160;27;20043;-78
2022/03/12 04:24:15;;;;;;;13.23;6.50;;;;;;;-0.18;41.98;96545.72;5129433;27;20066;-78
2022/03/12 04:26:42;;;;;;;14.27;6.90;;;;;;;-0.20;41.93;96547.03;5129046;27;20451;-78
2022/03/12 04:29:10;;;;;;;14.95;6.97;;;;;;;-0.20;42.13;96549.72;5128238;27;20668;-78
2022/03/12 04:31:36;;;;;;;13.27;6.60;;;;;;;-0.22;42.85;96546.47;5108554;28;20043;-77
2022/03/12 04:34:03;;;;;;;16.58;7.55;;;;;;;-0.25;42.18;96546.97;5107374;28;20047;-78
2022/03/12 04:36:30;;;;;;;12.73;6.40;;;;;;;-0.27;42.25;96547.19;5108452;28;20048;-77
2022/03/12 04:38:56;;;;;;;13.80;7.53;;;;;;;-0.31;42.45;96544.22;5108276;28;20073;-78
2022/03/12 04:41:24;;;;;;;14.35;7.75;;;;;;;-0.30;42.46;96547.69;5108466;28;20054;-78
2022/03/12 04:43:52;;;;;;;12.73;6.90;;;;;;;-0.28;42.89;96550.94;5107641;28;20043;-78
2022/03/12 04:46:19;;;;;;;14.90;7.10;;;;;;;-0.28;43.02;96554.41;5108459;28;20734;-78
2022/03/12 04:48:45;;;;;;;13.30;6.20;;;;;;;-0.31;42.19;96543.41;5108563;28;20056;-77
2022/03/12 04:51:12;;;;;;;12.20;6.90;;;;;;;-0.34;42.74;96544.69;5095997;28;20062;-78
2022/03/12 04:53:39;;;;;;;13.65;6.45;;;;;;;-0.37;42.48;96549.69;5088730;28;20052;-77
2022/03/12 04:56:06;;;;;;;13.70;6.57;;;;;;;-0.38;42.76;96543.53;5088600;28;20122;-78
2022/03/12 04:58:36;;;;;;;13.25;6.07;;;;;;;-0.38;42.47;96553.44;5089578;28;20055;-78
2022/03/12 05:01:03;;;;;;;12.13;7.07;;;;;;;-0.38;43.01;96548.91;5088490;28;20588;-78
2022/03/12 05:03:29;;;;;;;11.90;6.65;;;;;;;-0.39;42.79;96559.84;5090314;28;20048;-78
2022/03/12 05:05:58;;;;;;;13.57;6.65;;;;;;;-0.41;42.40;96552.06;5089969;28;20052;-77
2022/03/12 05:08:27;;;;;;;14.18;6.93;;;;;;;-0.38;43.00;96554.25;5088898;28;20071;-78
2022/03/12 05:10:56;;;;;;;15.52;6.68;;;;;;;-0.37;42.69;96555.88;5088634;28;20051;-78
2022/03/12 05:13:24;;;;;;;16.20;7.88;;;;;;;-0.39;42.53;96560.66;5087644;28;20044;-78
2022/03/12 05:15:55;;;;;;;14.50;6.60;;;;;;;-0.37;43.14;96563.88;5108196;28;20570;-78
2022/03/12 05:18:23;;;;;;;14.70;6.88;;;;;;;-0.39;43.11;96560.66;5108431;28;20046;-77
2022/03/12 05:20:51;;;;;;;15.70;7.05;;;;;;;-0.39;42.83;96560.66;5110473;28;20050;-78
2022/03/12 05:23:19;;;;;;;15.43;6.85;;;;;;;-0.41;43.36;96560.09;5108057;28;20058;-77
2022/03/12 05:25:47;;;;;;;14.43;7.07;;;;;;;-0.45;42.92;96564.31;5108631;28;20039;-77
2022/03/12 05:28:17;;;;;;;14.85;6.60;;;;;;;-0.47;42.89;96570.94;5106472;28;20363;-78
2022/03/12 05:30:45;;;;;;;13.18;7.07;;;;;;;-0.44;43.23;96571.28;5094477;28;20514;-79
2022/03/12 05:33:13;;;;;;;11.65;6.47;;;;;;;-0.41;44.41;96576.16;5087034;28;20478;-78
2022/03/12 05:35:41;;;;;;;15.77;6.45;;;;;;;-0.40;44.18;96572.41;5087279;28;20059;-78
2022/03/12 05:38:09;;;;;;;14.60;7.20;;;;;;;-0.39;44.15;96567.88;5087611;28;20071;-77
2022/03/12 05:40:38;;;;;;;15.70;7.05;;;;;;;-0.37;44.22;96577.28;5087359;28;20047;-78
2022/03/12 05:43:12;;;;;;;15.57;6.53;;;;;;;-0.37;44.44;96568.44;5088057;28;20105;-78
2022/03/12 05:45:39;;;;;;;15.00;6.65;;;;;;;-0.36;44.13;96578.09;5066810;28;20052;-78
2022/03/12 05:48:08;;;;;;;13.45;6.53;;;;;;;-0.36;43.73;96573.56;5067420;28;20511;-78
2022/03/12 05:50:36;;;;;;;12.10;6.63;;;;;;;-0.35;43.66;96585.88;5068441;28;20540;-78
2022/03/12 05:53:07;;;;;;;13.98;7.32;;;;;;;-0.35;43.69;96588.56;5068471;28;20044;-78
2022/03/12 05:55:39;;;;;;;13.70;6.90;;;;;;;-0.31;44.51;96591.56;5068094;28;20052;-77
2022/03/12 05:58:07;;;;;;;12.88;6.18;;;;;;;-0.32;44.66;96589.91;5069538;28;20579;-78
2022/03/12 06:00:33;;;;;;;12.18;6.03;;;;;;;-0.29;44.23;96595.59;5083140;28;20408;-78
2022/03/12 06:03:01;;;;;;;14.32;6.85;;;;;;;-0.24;43.86;96596.75;5090440;28;20059;-77
2022/03/12 06:05:28;;;;;;;12.55;6.88;;;;;;;-0.22;43.61;96589.28;5090557;28;20040;-78
2022/03/12 06:07:57;;;;;;;11.35;6.18;;;;;;;-0.20;43.24;96597.91;5088761;28;20052;-78
2022/03/12 06:10:28;;;;;;;14.52;6.88;;;;;;;-0.17;44.24;96592.03;5088566;28;20491;-78
2022/03/12 06:12:56;;;;;;;10.52;5.95;;;;;;;-0.14;44.23;96597.72;5087860;28;20056;-77
2022/03/12 06:15:24;;;;;;;16.38;7.45;;;;;;;-0.10;43.83;96606.09;5086830;28;20052;-78
2022/03/12 06:17:51;;;;;;;12.38;6.57;;;;;;;-0.09;43.41;96607.69;5087607;28;20048;-77
2022/03/12 06:20:20;;;;;;;13.65;6.95;;;;;;;-0.08;43.65;96604.78;5087387;28;20051;-77
2022/03/12 06:22:47;;;;;;;13.57;6.68;;;;;;;-0.08;43.31;96612.00;5088245;28;20164;-77
2022/03/12 06:25:16;;;;;;;18.13;8.32;;;;;;;-0.06;43.85;96618.72;5086187;28;20052;-78
2022/03/12 06:27:47;;;;;;;14.02;7.15;;;;;;;-0.05;43.40;96616.88;5087686;28;20040;-77
2022/03/12 06:30:16;;;;;;;13.38;6.40;;;;;;;-0.02;43.04;96619.03;5087893;28;20040;-78
2022/03/12 06:32:43;;;;;;;13.98;7.32;;;;;;;-0.05;44.20;96617.69;5087709;28;20044;-78
2022/03/12 06:35:12;;;;;;;16.27;7.22;;;;;;;-0.01;43.56;96623.34;5086145;28;20056;-78
2022/03/12 06:37:38;;;;;;;13.63;6.90;;;;;;;0.01;43.55;96621.25;5087245;28;20052;-77
2022/03/12 06:40:06;;;;;;;14.82;6.57;;;;;;;0.06;43.31;96623.19;5087551;28;20040;-77
2022/03/12 06:42:35;;;;;;;12.27;6.53;;;;;;;0.06;43.87;96625.88;5087853;28;20061;-77
2022/03/12 06:45:03;;;;;;;12.25;6.32;;;;;;;0.06;43.68;96624.00;5087521;28;20052;-79
2022/03/12 06:47:32;;;;;;;11.65;5.95;;;;;;;0.10;43.12;96630.47;5088632;28;20055;-77
2022/03/12 06:49:59;;;;;;;14.38;7.53;;;;;;;0.12;43.34;96633.72;5088612;28;20091;-76
2022/03/12 06:52:27;;;;;;;12.10;6.25;;;;;;;0.18;44.29;96637.28;5087677;28;20074;-78
2022/03/12 06:54:54;;;;;;;12.75;7.15;;;;;;;0.24;43.32;96637.13;5087102;28;20047;-78
2022/03/12 06:57:21;;;;;;;16.52;6.82;;;;;;;0.29;43.30;96641.75;5086279;28;20044;-79
2022/03/12 06:59:49;;;;;;;15.73;7.53;;;;;;;0.36;43.39;96639.69;5089583;28;20052;-77
2022/03/12 07:02:16;;;;;;;14.27;7.00;;;;;;;0.40;43.28;96640.03;5075294;28;20113;-78
2022/03/12 07:04:42;;;;;;;12.88;6.85;;;;;;;0.44;42.66;96646.50;5082995;28;20048;-77
2022/03/12 07:07:09;;;;;;;13.85;6.82;;;;;;;0.47;42.44;96646.00;5091528;28;20040;-78
2022/03/12 07:09:36;;;;;;;13.45;6.88;;;;;;;0.56;42.94;96647.22;5084836;28;20040;-77
2022/03/12 07:12:03;;;;;;;13.10;7.28;;;;;;;0.59;42.32;96652.09;5085452;28;20048;-78
2022/03/12 07:14:31;;;;;;;14.25;6.63;;;;;;;0.68;42.11;96650.63;5083886;28;20060;-78
2022/03/12 07:16:59;;;;;;;13.90;7.15;;;;;;;0.92;42.11;96647.69;5111145;28;20054;-78
2022/03/12 07:19:26;;;;;;;14.38;6.82;;;;;;;1.21;42.31;96654.50;5109323;28;20054;-77
2022/03/12 07:21:52;;;;;;;16.33;7.82;;;;;;;1.41;40.30;96658.44;5093282;28;20066;-75
2022/03/12 07:24:19;;;;;;;14.35;6.78;;;;;;;1.52;39.92;96652.13;5089077;28;20043;-78
2022/03/12 07:26:46;;;;;;;14.20;7.20;;;;;;;1.71;39.71;96656.06;5089667;28;20047;-77
2022/03/12 07:29:13;;;;;;;14.25;6.75;;;;;;;1.83;39.40;96659.44;5089737;28;20058;-77
2022/03/12 07:31:40;;;;;;;15.05;7.65;;;;;;;1.95;39.51;96661.13;5089691;28;20048;-78
2022/03/12 07:34:08;;;;;;;11.95;6.85;;;;;;;2.03;39.09;96663.34;5089482;28;20059;-78
2022/03/12 07:36:35;;;;;;;14.40;7.28;;;;;;;2.09;39.31;96651.59;5089651;28;20687;-75
2022/03/12 07:39:03;;;;;;;14.77;7.25;;;;;;;2.29;38.48;96657.09;5091529;28;20503;-74
2022/03/12 07:41:30;;;;;;;14.10;7.28;;;;;;;2.50;38.10;96651.84;5089435;28;20062;-76
2022/03/12 07:43:57;;;;;;;20.00;12.15;;;;;;;2.93;38.62;96660.75;5089542;28;20051;-75
2022/03/12 07:46:24;;;;;;;16.50;7.45;;;;;;;3.35;36.76;96653.38;5089216;28;20051;-74
2022/03/12 07:48:50;;;;;;;14.80;7.18;;;;;;;3.65;35.65;96657.19;5110240;28;20074;-75
2022/03/12 07:51:18;;;;;;;10.80;5.93;;;;;;;4.04;34.66;96654.03;5123357;27;20055;-76
2022/03/12 07:53:45;;;;;;;12.82;6.90;;;;;;;4.32;34.77;96656.19;5130344;27;20058;-75
2022/03/12 07:56:12;;;;;;;12.98;6.40;;;;;;;4.61;34.00;96661.03;5130468;27;20051;-75
2022/03/12 07:58:39;;;;;;;14.18;6.90;;;;;;;4.80;33.59;96651.25;5130153;27;20079;-75
2022/03/12 08:01:08;;;;;;;14.40;6.47;;;;;;;5.20;33.63;96660.31;5131103;27;20061;-75
2022/03/12 08:03:35;;;;;;;14.00;6.60;;;;;;;5.55;32.96;96653.16;5130265;27;20414;-76
2022/03/12 08:06:03;;;;;;;11.20;6.75;;;;;;;5.66;31.74;96649.31;5130583;27;20100;-75
2022/03/12 08:08:31;;;;;;;12.82;6.45;;;;;;;5.93;32.32;96652.41;5090001;28;20185;-75
2022/03/12 08:13:44;;;;;;;12.27;6.45;;;;;;;6.66;30.86;96643.41;5093894;28;20112;-75
2022/03/12 08:16:12;;;;;;;13.70;7.43;;;;;;;6.82;31.13;96641.38;5108779;28;20150;-75
2022/03/12 08:18:38;;;;;;;14.18;6.63;;;;;;;6.93;31.63;96653.69;5109413;28;20520;-75
2022/03/12 08:21:05;;;;;;;12.50;6.78;;;;;;;6.97;30.17;96646.63;5108997;28;20470;-75
2022/03/12 08:23:33;;;;;;;12.88;7.68;;;;;;;7.07;30.46;96653.81;5110385;28;20054;-75
2022/03/12 08:26:00;;;;;;;17.98;8.35;;;;;;;7.48;29.88;96643.31;5109326;28;20049;-75
2022/03/12 08:28:27;;;;;;;14.98;7.78;;;;;;;7.93;28.96;96649.19;5109949;28;20163;-75
2022/03/12 08:30:54;;;;;;;15.95;7.38;;;;;;;8.22;28.91;96656.38;5110089;28;20054;-75
2022/03/12 08:33:20;;;;;;;13.75;8.18;;;;;;;8.32;28.47;96661.63;5110481;28;20044;-75
2022/03/12 08:35:47;;;;;;;12.32;7.82;;;;;;;8.46;28.69;96648.97;5110260;28;20055;-74
2022/03/12 08:38:14;;;;;;;13.98;7.55;;;;;;;8.74;28.57;96655.25;5110175;28;20051;-75
2022/03/12 08:40:42;;;;;;;11.55;6.72;;;;;;;8.89;28.11;96654.19;5111494;28;20058;-74
2022/03/12 08:43:09;;;;;;;13.95;8.15;;;;;;;8.95;28.03;96652.97;5109922;28;20524;-75
2022/03/12 08:45:35;;;;;;;16.80;7.25;;;;;;;9.18;28.95;96651.16;5132004;27;20050;-75
2022/03/12 08:48:02;;;;;;;13.48;7.57;;;;;;;9.50;26.98;96657.59;5129399;27;20051;-80
2022/03/12 08:50:28;;;;;;;11.15;7.15;;;;;;;9.77;27.75;96651.34;5130677;27;20039;-74
2022/03/12 08:52:55;;;;;;;11.27;7.57;;;;;;;9.96;26.47;96654.72;5130489;27;20046;-74
2022/03/12 08:55:23;;;;;;;11.20;7.00;;;;;;;9.94;26.52;96659.66;5130025;27;20509;-75
2022/03/12 08:57:52;;;;;;;14.20;7.68;;;;;;;10.10;27.30;96660.91;5130954;27;20047;-75
2022/03/12 09:00:19;;;;;;;15.00;7.82;;;;;;;10.31;26.69;96652.31;5118940;27;20047;-74
2022/03/12 09:02:47;;;;;;;13.50;7.40;;;;;;;10.42;26.11;96651.75;5109441;28;20052;-75
2022/03/12 09:05:19;;;;;;;15.05;7.97;;;;;;;10.52;26.46;96656.16;5109087;28;20052;-74
2022/03/12 09:07:48;;;;;;;15.15;7.82;;;;;;;10.63;26.92;96660.22;5110883;28;20066;-75
2022/03/12 09:10:16;;;;;;;14.35;7.60;;;;;;;10.79;26.29;96659.84;5109018;28;20101;-74
2022/03/12 09:12:44;;;;;;;11.05;7.13;;;;;;;10.95;25.99;96658.31;5108778;28;20051;-73
2022/03/12 09:15:13;;;;;;;12.70;7.53;;;;;;;11.00;26.46;96660.13;5111786;27;20048;-73
2022/03/12 09:17:40;;;;;;;12.07;7.38;;;;;;;11.02;25.55;96658.69;5107504;28;20055;-75
2022/03/12 09:20:08;;;;;;;13.85;7.40;;;;;;;11.07;26.05;96650.38;5108836;28;20047;-75
2022/03/12 09:22:35;;;;;;;13.20;8.20;;;;;;;10.94;25.62;96652.06;5109266;28;20101;-74
2022/03/12 09:25:03;;;;;;;13.80;7.82;;;;;;;10.98;26.63;96657.72;5109082;28;20051;-75
2022/03/12 09:27:33;;;;;;;13.98;8.10;;;;;;;10.89;27.10;96660.38;5108458;28;20051;-74
2022/03/12 09:30:00;;;;;;;14.88;8.52;;;;;;;10.99;26.58;96651.13;5108697;28;20143;-77
2022/03/12 09:32:28;;;;;;;13.13;7.85;;;;;;;10.92;25.94;96654.31;5108331;28;20039;-77
2022/03/12 09:34:54;;;;;;;14.10;7.50;;;;;;;11.05;27.28;96646.34;5109849;28;20133;-74
2022/03/12 09:37:21;;;;;;;13.57;7.70;;;;;;;11.43;27.14;96644.75;5098688;28;20639;-78
2022/03/12 09:39:48;;;;;;;15.60;7.47;;;;;;;11.56;25.23;96648.47;5098589;28;20526;-74
2022/03/12 09:42:14;;;;;;;12.57;7.50;;;;;;;11.49;25.64;96651.66;5108688;28;20564;-74
2022/03/12 09:44:41;;;;;;;12.70;7.82;;;;;;;11.50;25.29;96652.47;5121184;27;20055;-75
2022/03/12 09:47:08;;;;;;;11.75;8.13;;;;;;;11.43;25.70;96652.94;5113604;27;20081;-75
2022/03/12 09:49:36;;;;;;;14.88;8.95;;;;;;;11.61;25.17;96642.06;5106614;28;20422;-75
2022/03/12 09:52:04;;;;;;;15.27;8.25;;;;;;;11.78;26.10;96647.56;5106698;28;20421;-76
2022/03/12 09:54:34;;;;;;;15.48;8.40;;;;;;;12.00;26.37;96643.91;5105864;28;20050;-73
2022/03/12 09:57:01;;;;;;;15.07;8.88;;;;;;;12.17;26.61;96637.69;5106583;28;20047;-74
2022/03/12 09:59:31;;;;;;;15.77;8.50;;;;;;;12.18;25.13;96637.34;5105182;28;20043;-74
2022/03/12 10:01:58;;;;;;;13.90;9.18;;;;;;;12.43;24.92;96629.47;5106454;28;20073;-74
2022/03/12 10:04:24;;;;;;;14.00;8.57;;;;;;;12.66;24.66;96633.63;5092664;28;20040;-77
2022/03/12 10:06:53;;;;;;;14.85;8.05;;;;;;;12.83;24.36;96627.31;5104077;28;20048;-75
2022/03/12 10:09:19;;;;;;;17.60;8.52;;;;;;;12.92;24.51;96636.28;5104794;28;20158;-75
2022/03/12 10:11:48;;;;;;;14.18;8.75;;;;;;;12.94;24.46;96638.69;5105628;28;20533;-75
2022/03/12 10:14:14;;;;;;;13.07;8.15;;;;;;;12.97;24.57;96632.56;5106581;28;20043;-76
2022/03/12 10:16:41;;;;;;;16.30;8.45;;;;;;;12.71;25.46;96625.25;5106501;28;20105;-75
2022/03/12 10:19:08;;;;;;;14.52;8.57;;;;;;;12.65;25.74;96628.47;5107153;28;20043;-75
2022/03/12 10:21:42;;;;;;;15.57;7.95;;;;;;;12.57;25.50;96630.09;5108061;28;20472;-76
2022/03/12 10:24:10;;;;;;;19.35;9.82;;;;;;;12.36;26.48;96624.50;5108959;28;20047;-76
2022/03/12 10:26:37;;;;;;;21.85;10.10;;;;;;;12.28;25.80;96623.38;5109360;28;20356;-76
2022/03/12 10:29:04;;;;;;;23.30;10.45;;;;;;;12.23;26.48;96615.34;5109716;28;20058;-75
2022/03/12 10:31:31;;;;;;;23.15;11.27;;;;;;;12.10;27.05;96621.75;5105389;28;20524;-76
2022/03/12 10:34:21;;;;;;;22.48;10.63;;;;;;;12.07;26.06;96616.97;5096383;28;20200;-77
2022/03/12 10:36:49;;;;;;;28.23;11.38;;;;;;;11.91;26.76;96618.56;5109488;28;20051;-76
2022/03/12 10:39:17;;;;;;;20.30;10.93;;;;;;;11.83;26.96;96611.16;5108456;28;20048;-76
2022/03/12 10:41:44;;;;;;;19.45;9.40;;;;;;;11.82;26.97;96612.28;5107909;28;20059;-76
2022/03/12 10:44:11;;;;;;;19.05;9.95;;;;;;;11.90;27.85;96608.75;5104258;28;20063;-75
2022/03/12 10:46:41;;;;;;;23.02;10.90;;;;;;;11.87;26.98;96602.03;5102962;28;20077;-74
2022/03/12 10:49:08;;;;;;;21.98;10.52;;;;;;;11.96;27.29;96605.56;5092926;28;20478;-76
2022/03/12 10:51:39;;;;;;;24.15;11.50;;;;;;;12.04;27.33;96605.88;5105924;28;20411;-75
2022/03/12 10:54:15;;;;;;;23.67;11.23;;;;;;;12.07;26.77;96606.03;5104524;28;20047;-75
2022/03/12 10:56:48;;;;;;;21.83;11.38;;;;;;;12.07;26.82;96603.31;5105918;28;20055;-74
2022/03/12 10:59:17;;;;;;;18.65;10.32;;;;;;;12.09;27.74;96603.00;5105888;28;20541;-75
2022/03/12 11:01:52;;;;;;;23.70;11.25;;;;;;;12.09;27.41;96603.00;5105134;28;20047;-75
2022/03/12 11:04:21;;;;;;;28.25;11.63;;;;;;;12.13;27.33;96599.28;5105033;28;20055;-76
2022/03/12 11:06:47;;;;;;;23.17;11.48;;;;;;;12.14;27.60;96600.91;5106039;28;20440;-76
2022/03/12 11:09:18;;;;;;;28.23;12.40;;;;;;;12.21;27.96;96600.41;5105339;28;20047;-76
2022/03/12 11:11:47;;;;;;;27.25;12.07;;;;;;;12.24;27.82;96592.38;5105761;28;20063;-76
2022/03/12 11:14:21;;;;;;;25.85;12.77;;;;;;;12.30;28.06;96594.94;5115267;28;20081;-75
2022/03/12 11:16:52;;;;;;;23.48;11.40;;;;;;;12.40;27.02;96594.63;5129207;28;20099;-76
2022/03/12 11:19:37;;;;;;;22.35;11.45;;;;;;;12.43;28.33;96585.78;5126038;28;20044;-76
2022/03/12 11:22:12;;;;;;;28.23;13.77;;;;;;;12.44;27.40;96581.91;5127015;28;20490;-76
2022/03/12 11:24:50;;;;;;;22.90;12.95;;;;;;;12.49;27.25;96585.28;5126677;28;20434;-76
2022/03/12 11:27:31;;;;;;;24.77;12.48;;;;;;;12.51;26.97;96584.94;5120540;28;20047;-76
2022/03/12 11:30:00;;;;;;;26.45;13.02;;;;;;;12.63;27.04;96576.88;5106611;28;20414;-76
2022/03/12 11:32:30;;;;;;;24.63;12.48;;;;;;;12.94;26.94;96578.56;5105149;28;20047;-76
2022/03/12 11:35:10;;;;;;;25.50;11.63;;;;;;;13.10;25.60;96574.13;5107023;28;20079;-76